aviador You're here:

YBCG Decoded Metar

COOLANGATTA in AUSTRALIA
Report Time2018-01-21 22:00:00
UTC Time2018-01-21 22:36:49
Flight Rules vfr VFR
Wind160° at 05 kt
W.Decomp.*RWY 14: 4.9 kt HW 0.8 kt RCW
RWY 17: 4.7 kt HW 1.8 kt LCW
W.Rank160° ranks 15
Current wind is below 160° avg. (9.0)
Visibility9999 m
Phenomena:N/A
Clouds:Scattered 023 Hf
Scattered 042 Hf
Expected CloudBase > 3,200 ft AGL from Temp-Dew spread
CeilingNone
Temp26°C (ISA +11)
Dew Point18°C (61% RH)
QNH1013 hPa
Density Alt1,568 ft
Elevation20 ft
Report Wrong Elevation
Raw Report
METAR YBCG 212200Z AUTO 16005KT 9999 // SCT023 SCT042 26/18 Q1013=

Extra information for YBCG:More info

Metar Taf Metar & Taf Last 4 Metars F.Rules Stats Wind Profile Meteogram Temp Stats Airport Information Weather charts Add Link Nearby VenuesMetar ALERT Operation Metar Decoded Social comments